sensor_id;sensor_type;location;lat;lon;timestamp;P1;durP1;ratioP1;P2;durP2;ratioP2
36355;SDS011;22384;54.302;18.596;2022-10-16T00:00:42;65.07;;;33.05;;
36355;SDS011;22384;54.302;18.596;2022-10-16T00:03:09;68.75;;;35.58;;
36355;SDS011;22384;54.302;18.596;2022-10-16T00:05:39;63.13;;;32.50;;
36355;SDS011;22384;54.302;18.596;2022-10-16T00:08:06;62.92;;;32.75;;
36355;SDS011;22384;54.302;18.596;2022-10-16T00:10:32;64.47;;;33.47;;
36355;SDS011;22384;54.302;18.596;2022-10-16T00:12:58;64.03;;;33.72;;
36355;SDS011;22384;54.302;18.596;2022-10-16T00:15:24;56.03;;;31.42;;
36355;SDS011;22384;54.302;18.596;2022-10-16T00:17:50;59.50;;;29.63;;
36355;SDS011;22384;54.302;18.596;2022-10-16T00:20:17;65.93;;;32.67;;
36355;SDS011;22384;54.302;18.596;2022-10-16T00:22:43;54.80;;;30.67;;
36355;SDS011;22384;54.302;18.596;2022-10-16T00:25:11;61.65;;;31.95;;
36355;SDS011;22384;54.302;18.596;2022-10-16T00:27:37;59.70;;;32.80;;
36355;SDS011;22384;54.302;18.596;2022-10-16T00:30:03;54.38;;;30.20;;
36355;SDS011;22384;54.302;18.596;2022-10-16T00:32:30;60.60;;;32.20;;
36355;SDS011;22384;54.302;18.596;2022-10-16T00:34:56;60.00;;;30.70;;
36355;SDS011;22384;54.302;18.596;2022-10-16T00:37:22;58.95;;;30.38;;
36355;SDS011;22384;54.302;18.596;2022-10-16T00:39:48;62.15;;;31.70;;
36355;SDS011;22384;54.302;18.596;2022-10-16T00:42:17;63.22;;;31.13;;
36355;SDS011;22384;54.302;18.596;2022-10-16T00:44:46;56.80;;;29.87;;
36355;SDS011;22384;54.302;18.596;2022-10-16T00:47:22;55.28;;;29.65;;
36355;SDS011;22384;54.302;18.596;2022-10-16T00:49:51;48.25;;;28.48;;
36355;SDS011;22384;54.302;18.596;2022-10-16T00:52:19;52.75;;;28.15;;
36355;SDS011;22384;54.302;18.596;2022-10-16T00:54:46;49.90;;;28.60;;
36355;SDS011;22384;54.302;18.596;2022-10-16T00:57:16;54.22;;;28.45;;
36355;SDS011;22384;54.302;18.596;2022-10-16T00:59:42;54.88;;;28.40;;
36355;SDS011;22384;54.302;18.596;2022-10-16T01:02:10;57.22;;;29.75;;
36355;SDS011;22384;54.302;18.596;2022-10-16T01:04:41;52.60;;;27.98;;
36355;SDS011;22384;54.302;18.596;2022-10-16T01:14:48;53.72;;;27.63;;
36355;SDS011;22384;54.302;18.596;2022-10-16T01:17:21;49.65;;;27.33;;
36355;SDS011;22384;54.302;18.596;2022-10-16T01:20:03;50.40;;;27.13;;
36355;SDS011;22384;54.302;18.596;2022-10-16T01:22:37;54.95;;;28.10;;
36355;SDS011;22384;54.302;18.596;2022-10-16T01:25:05;51.53;;;27.63;;
36355;SDS011;22384;54.302;18.596;2022-10-16T01:27:35;46.13;;;27.50;;
36355;SDS011;22384;54.302;18.596;2022-10-16T01:30:05;44.83;;;26.42;;
36355;SDS011;22384;54.302;18.596;2022-10-16T01:32:39;55.65;;;26.75;;
36355;SDS011;22384;54.302;18.596;2022-10-16T01:38:06;44.83;;;25.35;;
36355;SDS011;22384;54.302;18.596;2022-10-16T01:40:34;44.45;;;25.73;;
36355;SDS011;22384;54.302;18.596;2022-10-16T01:43:07;48.97;;;25.83;;
36355;SDS011;22384;54.302;18.596;2022-10-16T01:45:35;40.30;;;24.38;;
36355;SDS011;22384;54.302;18.596;2022-10-16T01:48:02;38.03;;;23.65;;
36355;SDS011;22384;54.302;18.596;2022-10-16T01:50:33;37.47;;;24.60;;
36355;SDS011;22384;54.302;18.596;2022-10-16T01:53:01;45.58;;;24.63;;
36355;SDS011;22384;54.302;18.596;2022-10-16T01:55:32;42.63;;;24.65;;
36355;SDS011;22384;54.302;18.596;2022-10-16T01:58:06;43.28;;;23.85;;
36355;SDS011;22384;54.302;18.596;2022-10-16T02:00:33;40.90;;;24.02;;
36355;SDS011;22384;54.302;18.596;2022-10-16T02:03:02;37.03;;;22.90;;
36355;SDS011;22384;54.302;18.596;2022-10-16T02:05:33;35.22;;;22.95;;
36355;SDS011;22384;54.302;18.596;2022-10-16T02:08:02;35.72;;;21.92;;
36355;SDS011;22384;54.302;18.596;2022-10-16T02:10:28;31.88;;;20.92;;
36355;SDS011;22384;54.302;18.596;2022-10-16T02:12:57;33.90;;;20.60;;
36355;SDS011;22384;54.302;18.596;2022-10-16T02:15:25;25.67;;;19.42;;
36355;SDS011;22384;54.302;18.596;2022-10-16T02:17:51;30.55;;;20.40;;
36355;SDS011;22384;54.302;18.596;2022-10-16T02:20:18;27.95;;;19.85;;
36355;SDS011;22384;54.302;18.596;2022-10-16T02:22:46;27.98;;;19.05;;
36355;SDS011;22384;54.302;18.596;2022-10-16T02:25:19;25.27;;;18.35;;
36355;SDS011;22384;54.302;18.596;2022-10-16T02:27:54;31.27;;;19.52;;
36355;SDS011;22384;54.302;18.596;2022-10-16T02:30:35;35.08;;;20.35;;
36355;SDS011;22384;54.302;18.596;2022-10-16T02:33:02;31.63;;;20.52;;
36355;SDS011;22384;54.302;18.596;2022-10-16T02:35:29;29.90;;;20.10;;
36355;SDS011;22384;54.302;18.596;2022-10-16T02:37:56;30.48;;;20.63;;
36355;SDS011;22384;54.302;18.596;2022-10-16T02:40:23;29.25;;;19.52;;
36355;SDS011;22384;54.302;18.596;2022-10-16T02:42:50;27.48;;;19.88;;
36355;SDS011;22384;54.302;18.596;2022-10-16T02:45:17;29.65;;;19.98;;
36355;SDS011;22384;54.302;18.596;2022-10-16T02:47:43;28.52;;;19.60;;
36355;SDS011;22384;54.302;18.596;2022-10-16T02:50:10;27.52;;;19.20;;
36355;SDS011;22384;54.302;18.596;2022-10-16T02:52:36;27.48;;;19.63;;
36355;SDS011;22384;54.302;18.596;2022-10-16T02:55:02;27.15;;;18.27;;
36355;SDS011;22384;54.302;18.596;2022-10-16T02:57:29;27.90;;;18.92;;
36355;SDS011;22384;54.302;18.596;2022-10-16T02:59:55;23.73;;;17.85;;
36355;SDS011;22384;54.302;18.596;2022-10-16T03:02:21;25.88;;;18.35;;
36355;SDS011;22384;54.302;18.596;2022-10-16T03:04:47;23.08;;;17.95;;
36355;SDS011;22384;54.302;18.596;2022-10-16T03:07:13;25.10;;;17.88;;
36355;SDS011;22384;54.302;18.596;2022-10-16T03:09:40;25.25;;;18.13;;
36355;SDS011;22384;54.302;18.596;2022-10-16T03:12:06;30.15;;;18.98;;
36355;SDS011;22384;54.302;18.596;2022-10-16T03:14:33;31.15;;;18.45;;
36355;SDS011;22384;54.302;18.596;2022-10-16T03:16:59;28.48;;;18.02;;
36355;SDS011;22384;54.302;18.596;2022-10-16T03:19:25;25.42;;;18.48;;
36355;SDS011;22384;54.302;18.596;2022-10-16T03:21:51;31.25;;;18.83;;
36355;SDS011;22384;54.302;18.596;2022-10-16T03:24:18;25.98;;;19.35;;
36355;SDS011;22384;54.302;18.596;2022-10-16T03:26:44;29.13;;;19.00;;
36355;SDS011;22384;54.302;18.596;2022-10-16T03:29:10;26.40;;;18.15;;
36355;SDS011;22384;54.302;18.596;2022-10-16T03:31:36;28.20;;;18.80;;
36355;SDS011;22384;54.302;18.596;2022-10-16T03:34:02;26.88;;;19.02;;
36355;SDS011;22384;54.302;18.596;2022-10-16T03:36:28;28.58;;;17.95;;
36355;SDS011;22384;54.302;18.596;2022-10-16T03:38:54;26.52;;;18.83;;
36355;SDS011;22384;54.302;18.596;2022-10-16T03:41:20;26.00;;;19.23;;
36355;SDS011;22384;54.302;18.596;2022-10-16T03:43:47;26.75;;;17.95;;
36355;SDS011;22384;54.302;18.596;2022-10-16T03:46:13;27.67;;;18.20;;
36355;SDS011;22384;54.302;18.596;2022-10-16T03:48:40;27.27;;;19.48;;
36355;SDS011;22384;54.302;18.596;2022-10-16T03:51:07;24.95;;;17.85;;
36355;SDS011;22384;54.302;18.596;2022-10-16T03:53:35;25.75;;;18.65;;
36355;SDS011;22384;54.302;18.596;2022-10-16T03:59:01;23.00;;;16.73;;
36355;SDS011;22384;54.302;18.596;2022-10-16T04:01:27;25.58;;;18.85;;
36355;SDS011;22384;54.302;18.596;2022-10-16T04:03:53;26.30;;;17.05;;
36355;SDS011;22384;54.302;18.596;2022-10-16T04:06:19;23.88;;;17.55;;
36355;SDS011;22384;54.302;18.596;2022-10-16T04:08:45;25.48;;;17.98;;
36355;SDS011;22384;54.302;18.596;2022-10-16T04:11:11;25.60;;;17.38;;
36355;SDS011;22384;54.302;18.596;2022-10-16T04:13:38;28.23;;;18.33;;
36355;SDS011;22384;54.302;18.596;2022-10-16T04:16:04;26.45;;;18.63;;
36355;SDS011;22384;54.302;18.596;2022-10-16T04:18:30;24.05;;;18.08;;
36355;SDS011;22384;54.302;18.596;2022-10-16T04:20:56;26.60;;;18.35;;
36355;SDS011;22384;54.302;18.596;2022-10-16T04:23:22;29.15;;;18.85;;
36355;SDS011;22384;54.302;18.596;2022-10-16T04:25:49;26.27;;;17.95;;
36355;SDS011;22384;54.302;18.596;2022-10-16T04:28:15;22.70;;;17.75;;
36355;SDS011;22384;54.302;18.596;2022-10-16T04:30:41;28.73;;;18.33;;
36355;SDS011;22384;54.302;18.596;2022-10-16T04:33:08;27.33;;;19.40;;
36355;SDS011;22384;54.302;18.596;2022-10-16T04:35:35;24.20;;;18.00;;
36355;SDS011;22384;54.302;18.596;2022-10-16T04:38:01;29.15;;;18.95;;
36355;SDS011;22384;54.302;18.596;2022-10-16T04:40:27;31.15;;;19.38;;
36355;SDS011;22384;54.302;18.596;2022-10-16T04:42:53;25.85;;;18.83;;
36355;SDS011;22384;54.302;18.596;2022-10-16T04:45:19;29.77;;;19.15;;
36355;SDS011;22384;54.302;18.596;2022-10-16T04:47:46;29.35;;;20.15;;
36355;SDS011;22384;54.302;18.596;2022-10-16T04:50:12;28.50;;;20.10;;
36355;SDS011;22384;54.302;18.596;2022-10-16T04:52:38;28.58;;;19.35;;
36355;SDS011;22384;54.302;18.596;2022-10-16T04:55:04;32.05;;;21.30;;
36355;SDS011;22384;54.302;18.596;2022-10-16T04:57:30;31.83;;;21.38;;
36355;SDS011;22384;54.302;18.596;2022-10-16T04:59:58;34.70;;;22.23;;
36355;SDS011;22384;54.302;18.596;2022-10-16T05:02:24;31.10;;;20.90;;
36355;SDS011;22384;54.302;18.596;2022-10-16T05:04:51;34.47;;;21.67;;
36355;SDS011;22384;54.302;18.596;2022-10-16T05:07:17;31.38;;;21.73;;
36355;SDS011;22384;54.302;18.596;2022-10-16T05:09:43;32.10;;;22.02;;
36355;SDS011;22384;54.302;18.596;2022-10-16T05:12:09;35.42;;;22.90;;
36355;SDS011;22384;54.302;18.596;2022-10-16T05:14:36;35.72;;;22.67;;
36355;SDS011;22384;54.302;18.596;2022-10-16T05:17:02;35.20;;;23.05;;
36355;SDS011;22384;54.302;18.596;2022-10-16T05:19:28;37.08;;;23.55;;
36355;SDS011;22384;54.302;18.596;2022-10-16T05:21:54;41.25;;;23.98;;
36355;SDS011;22384;54.302;18.596;2022-10-16T05:24:21;38.47;;;24.38;;
36355;SDS011;22384;54.302;18.596;2022-10-16T05:26:47;38.72;;;24.13;;
36355;SDS011;22384;54.302;18.596;2022-10-16T05:29:14;39.42;;;24.65;;
36355;SDS011;22384;54.302;18.596;2022-10-16T05:31:40;43.85;;;25.67;;
36355;SDS011;22384;54.302;18.596;2022-10-16T05:34:06;34.50;;;24.63;;
36355;SDS011;22384;54.302;18.596;2022-10-16T05:36:32;36.92;;;25.40;;
36355;SDS011;22384;54.302;18.596;2022-10-16T05:38:58;40.25;;;24.80;;
36355;SDS011;22384;54.302;18.596;2022-10-16T05:41:25;44.22;;;26.95;;
36355;SDS011;22384;54.302;18.596;2022-10-16T05:43:51;39.92;;;25.77;;
36355;SDS011;22384;54.302;18.596;2022-10-16T05:46:18;41.17;;;27.15;;
36355;SDS011;22384;54.302;18.596;2022-10-16T05:48:44;37.45;;;25.80;;
36355;SDS011;22384;54.302;18.596;2022-10-16T05:51:11;42.80;;;26.75;;
36355;SDS011;22384;54.302;18.596;2022-10-16T05:53:38;37.58;;;26.98;;
36355;SDS011;22384;54.302;18.596;2022-10-16T05:56:05;39.53;;;26.60;;
36355;SDS011;22384;54.302;18.596;2022-10-16T05:58:33;38.78;;;27.05;;
36355;SDS011;22384;54.302;18.596;2022-10-16T06:01:20;41.20;;;25.60;;
36355;SDS011;22384;54.302;18.596;2022-10-16T06:03:50;38.40;;;26.65;;
36355;SDS011;22384;54.302;18.596;2022-10-16T06:06:18;43.22;;;27.60;;
36355;SDS011;22384;54.302;18.596;2022-10-16T06:08:45;40.15;;;28.08;;
36355;SDS011;22384;54.302;18.596;2022-10-16T06:11:13;43.40;;;27.02;;
36355;SDS011;22384;54.302;18.596;2022-10-16T06:13:40;39.28;;;26.33;;
36355;SDS011;22384;54.302;18.596;2022-10-16T06:16:07;39.97;;;27.25;;
36355;SDS011;22384;54.302;18.596;2022-10-16T06:18:34;39.83;;;26.48;;
36355;SDS011;22384;54.302;18.596;2022-10-16T06:21:06;37.72;;;26.45;;
36355;SDS011;22384;54.302;18.596;2022-10-16T06:23:32;39.50;;;25.98;;
36355;SDS011;22384;54.302;18.596;2022-10-16T06:26:05;41.58;;;25.98;;
36355;SDS011;22384;54.302;18.596;2022-10-16T06:28:31;42.15;;;27.42;;
36355;SDS011;22384;54.302;18.596;2022-10-16T06:31:01;39.30;;;25.58;;
36355;SDS011;22384;54.302;18.596;2022-10-16T06:33:27;44.60;;;27.02;;
36355;SDS011;22384;54.302;18.596;2022-10-16T06:35:54;39.95;;;26.42;;
36355;SDS011;22384;54.302;18.596;2022-10-16T06:38:25;38.75;;;26.35;;
36355;SDS011;22384;54.302;18.596;2022-10-16T06:40:53;40.03;;;27.52;;
36355;SDS011;22384;54.302;18.596;2022-10-16T06:43:19;38.65;;;27.45;;
36355;SDS011;22384;54.302;18.596;2022-10-16T06:45:52;42.00;;;27.92;;
36355;SDS011;22384;54.302;18.596;2022-10-16T06:48:19;41.35;;;26.33;;
36355;SDS011;22384;54.302;18.596;2022-10-16T06:51:05;39.38;;;27.15;;
36355;SDS011;22384;54.302;18.596;2022-10-16T06:53:32;37.75;;;27.30;;
36355;SDS011;22384;54.302;18.596;2022-10-16T06:58:34;36.95;;;27.00;;
36355;SDS011;22384;54.302;18.596;2022-10-16T07:01:00;39.25;;;27.30;;
36355;SDS011;22384;54.302;18.596;2022-10-16T07:03:27;39.25;;;27.17;;
36355;SDS011;22384;54.302;18.596;2022-10-16T07:05:53;38.25;;;27.15;;
36355;SDS011;22384;54.302;18.596;2022-10-16T07:08:19;37.30;;;27.13;;
36355;SDS011;22384;54.302;18.596;2022-10-16T07:10:45;36.30;;;25.55;;
36355;SDS011;22384;54.302;18.596;2022-10-16T07:13:11;36.45;;;26.45;;
36355;SDS011;22384;54.302;18.596;2022-10-16T07:15:40;35.45;;;25.98;;
36355;SDS011;22384;54.302;18.596;2022-10-16T07:18:07;38.03;;;26.73;;
36355;SDS011;22384;54.302;18.596;2022-10-16T07:20:33;38.35;;;26.15;;
36355;SDS011;22384;54.302;18.596;2022-10-16T07:23:22;40.40;;;25.70;;
36355;SDS011;22384;54.302;18.596;2022-10-16T07:25:53;34.88;;;25.25;;
36355;SDS011;22384;54.302;18.596;2022-10-16T07:28:39;34.90;;;25.77;;
36355;SDS011;22384;54.302;18.596;2022-10-16T07:31:07;36.42;;;25.45;;
36355;SDS011;22384;54.302;18.596;2022-10-16T07:33:46;38.05;;;25.77;;
36355;SDS011;22384;54.302;18.596;2022-10-16T07:36:13;34.75;;;25.15;;
36355;SDS011;22384;54.302;18.596;2022-10-16T07:38:40;37.42;;;25.95;;
36355;SDS011;22384;54.302;18.596;2022-10-16T07:41:08;35.00;;;25.38;;
36355;SDS011;22384;54.302;18.596;2022-10-16T07:43:40;43.17;;;26.73;;
36355;SDS011;22384;54.302;18.596;2022-10-16T07:46:09;36.58;;;25.67;;
36355;SDS011;22384;54.302;18.596;2022-10-16T07:48:44;34.70;;;23.70;;
36355;SDS011;22384;54.302;18.596;2022-10-16T07:51:15;35.63;;;24.48;;
36355;SDS011;22384;54.302;18.596;2022-10-16T07:53:41;34.33;;;24.33;;
36355;SDS011;22384;54.302;18.596;2022-10-16T07:56:18;36.85;;;24.52;;
36355;SDS011;22384;54.302;18.596;2022-10-16T07:58:47;32.80;;;23.20;;
36355;SDS011;22384;54.302;18.596;2022-10-16T08:01:15;34.65;;;24.25;;
36355;SDS011;22384;54.302;18.596;2022-10-16T08:03:44;32.25;;;24.88;;
36355;SDS011;22384;54.302;18.596;2022-10-16T08:06:11;37.17;;;23.85;;
36355;SDS011;22384;54.302;18.596;2022-10-16T08:08:37;33.70;;;24.48;;
36355;SDS011;22384;54.302;18.596;2022-10-16T08:11:03;32.83;;;22.75;;
36355;SDS011;22384;54.302;18.596;2022-10-16T08:13:38;35.88;;;23.60;;
36355;SDS011;22384;54.302;18.596;2022-10-16T08:16:12;33.22;;;23.70;;
36355;SDS011;22384;54.302;18.596;2022-10-16T08:18:38;33.22;;;23.75;;
36355;SDS011;22384;54.302;18.596;2022-10-16T08:21:16;40.70;;;24.92;;
36355;SDS011;22384;54.302;18.596;2022-10-16T08:23:47;36.60;;;23.95;;
36355;SDS011;22384;54.302;18.596;2022-10-16T08:26:14;32.42;;;24.10;;
36355;SDS011;22384;54.302;18.596;2022-10-16T08:28:51;36.95;;;23.30;;
36355;SDS011;22384;54.302;18.596;2022-10-16T08:31:18;31.85;;;23.17;;
36355;SDS011;22384;54.302;18.596;2022-10-16T08:33:44;37.17;;;22.88;;
36355;SDS011;22384;54.302;18.596;2022-10-16T08:36:12;33.70;;;23.52;;
36355;SDS011;22384;54.302;18.596;2022-10-16T08:38:58;32.65;;;22.73;;
36355;SDS011;22384;54.302;18.596;2022-10-16T08:41:31;32.38;;;22.90;;
36355;SDS011;22384;54.302;18.596;2022-10-16T08:47:07;36.03;;;24.55;;
36355;SDS011;22384;54.302;18.596;2022-10-16T08:49:36;33.90;;;23.85;;
36355;SDS011;22384;54.302;18.596;2022-10-16T08:52:08;36.83;;;24.25;;
36355;SDS011;22384;54.302;18.596;2022-10-16T08:54:57;35.13;;;24.08;;
36355;SDS011;22384;54.302;18.596;2022-10-16T08:57:24;28.92;;;20.48;;
36355;SDS011;22384;54.302;18.596;2022-10-16T08:59:51;38.08;;;22.55;;
36355;SDS011;22384;54.302;18.596;2022-10-16T09:02:37;31.38;;;21.27;;
36355;SDS011;22384;54.302;18.596;2022-10-16T09:12:51;31.88;;;21.38;;
36355;SDS011;22384;54.302;18.596;2022-10-16T09:18:00;32.03;;;20.52;;
36355;SDS011;22384;54.302;18.596;2022-10-16T09:23:08;31.15;;;21.98;;
36355;SDS011;22384;54.302;18.596;2022-10-16T09:25:36;31.55;;;21.45;;
36355;SDS011;22384;54.302;18.596;2022-10-16T09:28:04;29.98;;;19.80;;
36355;SDS011;22384;54.302;18.596;2022-10-16T09:30:30;26.80;;;19.33;;
36355;SDS011;22384;54.302;18.596;2022-10-16T09:32:57;26.95;;;18.77;;
36355;SDS011;22384;54.302;18.596;2022-10-16T09:35:30;31.55;;;19.90;;
36355;SDS011;22384;54.302;18.596;2022-10-16T09:37:57;27.90;;;19.20;;
36355;SDS011;22384;54.302;18.596;2022-10-16T09:40:26;32.13;;;19.85;;
36355;SDS011;22384;54.302;18.596;2022-10-16T09:42:57;29.30;;;19.65;;
36355;SDS011;22384;54.302;18.596;2022-10-16T09:45:27;30.13;;;19.90;;
36355;SDS011;22384;54.302;18.596;2022-10-16T09:47:54;28.73;;;18.83;;
36355;SDS011;22384;54.302;18.596;2022-10-16T09:53:11;30.67;;;19.25;;
36355;SDS011;22384;54.302;18.596;2022-10-16T09:55:47;30.75;;;17.88;;
36355;SDS011;22384;54.302;18.596;2022-10-16T09:58:14;26.85;;;17.98;;
36355;SDS011;22384;54.302;18.596;2022-10-16T10:00:41;25.63;;;16.77;;
36355;SDS011;22384;54.302;18.596;2022-10-16T10:03:11;25.60;;;18.30;;
36355;SDS011;22384;54.302;18.596;2022-10-16T10:05:37;23.83;;;17.52;;
36355;SDS011;22384;54.302;18.596;2022-10-16T10:08:04;25.35;;;17.58;;
36355;SDS011;22384;54.302;18.596;2022-10-16T10:10:34;23.00;;;16.42;;
36355;SDS011;22384;54.302;18.596;2022-10-16T10:13:03;24.42;;;17.40;;
36355;SDS011;22384;54.302;18.596;2022-10-16T10:15:33;24.92;;;17.20;;
36355;SDS011;22384;54.302;18.596;2022-10-16T10:17:59;27.55;;;17.25;;
36355;SDS011;22384;54.302;18.596;2022-10-16T10:20:29;22.95;;;17.52;;
36355;SDS011;22384;54.302;18.596;2022-10-16T10:22:57;25.05;;;17.77;;
36355;SDS011;22384;54.302;18.596;2022-10-16T10:25:48;28.30;;;17.85;;
36355;SDS011;22384;54.302;18.596;2022-10-16T10:33:19;20.73;;;16.45;;
36355;SDS011;22384;54.302;18.596;2022-10-16T10:40:52;26.08;;;17.38;;
36355;SDS011;22384;54.302;18.596;2022-10-16T10:45:51;24.02;;;17.50;;
36355;SDS011;22384;54.302;18.596;2022-10-16T10:51:11;24.30;;;17.60;;
36355;SDS011;22384;54.302;18.596;2022-10-16T10:53:43;32.60;;;22.97;;
36355;SDS011;22384;54.302;18.596;2022-10-16T10:58:43;30.85;;;19.35;;
36355;SDS011;22384;54.302;18.596;2022-10-16T11:01:19;26.35;;;18.60;;
36355;SDS011;22384;54.302;18.596;2022-10-16T11:09:37;25.60;;;16.98;;
36355;SDS011;22384;54.302;18.596;2022-10-16T11:12:07;24.55;;;17.95;;
36355;SDS011;22384;54.302;18.596;2022-10-16T11:14:48;25.17;;;17.75;;
36355;SDS011;22384;54.302;18.596;2022-10-16T11:17:23;27.27;;;17.70;;
36355;SDS011;22384;54.302;18.596;2022-10-16T11:19:58;23.08;;;16.52;;
36355;SDS011;22384;54.302;18.596;2022-10-16T11:22:38;23.40;;;17.13;;
36355;SDS011;22384;54.302;18.596;2022-10-16T11:30:20;23.23;;;15.63;;
36355;SDS011;22384;54.302;18.596;2022-10-16T11:35:42;21.08;;;16.08;;
36355;SDS011;22384;54.302;18.596;2022-10-16T11:40:56;22.15;;;15.40;;
36355;SDS011;22384;54.302;18.596;2022-10-16T11:43:28;22.38;;;15.27;;
36355;SDS011;22384;54.302;18.596;2022-10-16T11:45:59;19.73;;;14.95;;
36355;SDS011;22384;54.302;18.596;2022-10-16T11:48:39;32.73;;;21.33;;
36355;SDS011;22384;54.302;18.596;2022-10-16T11:56:18;19.58;;;14.77;;
36355;SDS011;22384;54.302;18.596;2022-10-16T11:58:59;20.13;;;13.95;;
36355;SDS011;22384;54.302;18.596;2022-10-16T12:01:42;17.10;;;14.25;;
36355;SDS011;22384;54.302;18.596;2022-10-16T12:04:25;20.80;;;14.65;;
36355;SDS011;22384;54.302;18.596;2022-10-16T12:07:03;17.35;;;13.43;;
36355;SDS011;22384;54.302;18.596;2022-10-16T12:09:41;14.45;;;12.02;;
36355;SDS011;22384;54.302;18.596;2022-10-16T12:12:24;15.63;;;13.05;;
36355;SDS011;22384;54.302;18.596;2022-10-16T12:15:03;17.60;;;12.27;;
36355;SDS011;22384;54.302;18.596;2022-10-16T12:17:43;20.92;;;12.90;;
36355;SDS011;22384;54.302;18.596;2022-10-16T12:22:48;18.70;;;12.95;;
36355;SDS011;22384;54.302;18.596;2022-10-16T12:25:30;15.27;;;11.18;;
36355;SDS011;22384;54.302;18.596;2022-10-16T12:30:42;14.30;;;10.93;;
36355;SDS011;22384;54.302;18.596;2022-10-16T12:33:22;12.32;;;10.07;;
36355;SDS011;22384;54.302;18.596;2022-10-16T12:35:49;11.80;;;10.00;;
36355;SDS011;22384;54.302;18.596;2022-10-16T12:38:25;15.70;;;9.60;;
36355;SDS011;22384;54.302;18.596;2022-10-16T12:41:03;10.98;;;9.10;;
36355;SDS011;22384;54.302;18.596;2022-10-16T12:43:40;11.98;;;9.10;;
36355;SDS011;22384;54.302;18.596;2022-10-16T12:48:37;11.90;;;9.73;;
36355;SDS011;22384;54.302;18.596;2022-10-16T12:51:12;11.87;;;8.73;;
36355;SDS011;22384;54.302;18.596;2022-10-16T12:58:43;12.65;;;9.35;;
36355;SDS011;22384;54.302;18.596;2022-10-16T13:03:58;8.13;;;6.32;;
36355;SDS011;22384;54.302;18.596;2022-10-16T13:06:30;7.70;;;6.80;;
36355;SDS011;22384;54.302;18.596;2022-10-16T13:09:20;8.30;;;6.30;;
36355;SDS011;22384;54.302;18.596;2022-10-16T13:14:22;7.43;;;6.07;;
36355;SDS011;22384;54.302;18.596;2022-10-16T13:16:58;7.70;;;6.40;;
36355;SDS011;22384;54.302;18.596;2022-10-16T13:30:10;8.85;;;5.78;;
36355;SDS011;22384;54.302;18.596;2022-10-16T13:32:37;9.77;;;5.70;;
36355;SDS011;22384;54.302;18.596;2022-10-16T13:35:15;6.85;;;5.75;;
36355;SDS011;22384;54.302;18.596;2022-10-16T13:37:43;7.28;;;6.53;;
36355;SDS011;22384;54.302;18.596;2022-10-16T13:40:23;9.00;;;7.05;;
36355;SDS011;22384;54.302;18.596;2022-10-16T13:42:50;7.40;;;6.60;;
36355;SDS011;22384;54.302;18.596;2022-10-16T13:45:19;10.38;;;7.65;;
36355;SDS011;22384;54.302;18.596;2022-10-16T13:47:48;7.15;;;6.30;;
36355;SDS011;22384;54.302;18.596;2022-10-16T13:50:20;6.10;;;5.50;;
36355;SDS011;22384;54.302;18.596;2022-10-16T13:53:06;7.43;;;6.00;;
36355;SDS011;22384;54.302;18.596;2022-10-16T13:55:37;7.10;;;6.40;;
36355;SDS011;22384;54.302;18.596;2022-10-16T13:58:12;7.20;;;6.18;;
36355;SDS011;22384;54.302;18.596;2022-10-16T14:00:38;8.20;;;6.20;;
36355;SDS011;22384;54.302;18.596;2022-10-16T14:03:12;15.85;;;11.82;;
36355;SDS011;22384;54.302;18.596;2022-10-16T14:05:48;13.75;;;11.05;;
36355;SDS011;22384;54.302;18.596;2022-10-16T14:08:15;13.75;;;8.50;;
36355;SDS011;22384;54.302;18.596;2022-10-16T14:10:46;10.85;;;7.18;;
36355;SDS011;22384;54.302;18.596;2022-10-16T14:13:19;10.23;;;7.13;;
36355;SDS011;22384;54.302;18.596;2022-10-16T14:15:49;11.15;;;8.15;;
36355;SDS011;22384;54.302;18.596;2022-10-16T14:18:18;12.27;;;9.13;;
36355;SDS011;22384;54.302;18.596;2022-10-16T14:20:45;8.73;;;6.93;;
36355;SDS011;22384;54.302;18.596;2022-10-16T14:23:22;25.58;;;14.02;;
36355;SDS011;22384;54.302;18.596;2022-10-16T14:25:51;12.50;;;8.52;;
36355;SDS011;22384;54.302;18.596;2022-10-16T14:28:21;11.10;;;8.18;;
36355;SDS011;22384;54.302;18.596;2022-10-16T14:30:56;10.88;;;8.00;;
36355;SDS011;22384;54.302;18.596;2022-10-16T14:36:05;18.63;;;12.82;;
36355;SDS011;22384;54.302;18.596;2022-10-16T14:38:32;18.48;;;12.27;;
36355;SDS011;22384;54.302;18.596;2022-10-16T14:40:59;13.93;;;10.18;;
36355;SDS011;22384;54.302;18.596;2022-10-16T14:43:32;11.60;;;8.77;;
36355;SDS011;22384;54.302;18.596;2022-10-16T14:45:59;14.98;;;9.27;;
36355;SDS011;22384;54.302;18.596;2022-10-16T14:48:26;12.05;;;8.77;;
36355;SDS011;22384;54.302;18.596;2022-10-16T14:50:52;11.57;;;9.18;;
36355;SDS011;22384;54.302;18.596;2022-10-16T14:53:18;12.85;;;9.68;;
36355;SDS011;22384;54.302;18.596;2022-10-16T14:55:44;13.77;;;10.43;;
36355;SDS011;22384;54.302;18.596;2022-10-16T14:58:18;11.82;;;8.90;;
36355;SDS011;22384;54.302;18.596;2022-10-16T15:00:50;14.00;;;9.70;;
36355;SDS011;22384;54.302;18.596;2022-10-16T15:03:20;11.63;;;9.82;;
36355;SDS011;22384;54.302;18.596;2022-10-16T15:05:46;9.63;;;8.45;;
36355;SDS011;22384;54.302;18.596;2022-10-16T15:08:23;8.77;;;7.72;;
36355;SDS011;22384;54.302;18.596;2022-10-16T15:10:55;10.43;;;7.40;;
36355;SDS011;22384;54.302;18.596;2022-10-16T15:13:21;8.80;;;7.00;;
36355;SDS011;22384;54.302;18.596;2022-10-16T15:15:59;11.18;;;7.57;;
36355;SDS011;22384;54.302;18.596;2022-10-16T15:18:30;15.82;;;8.82;;
36355;SDS011;22384;54.302;18.596;2022-10-16T15:23:53;18.73;;;11.30;;
36355;SDS011;22384;54.302;18.596;2022-10-16T15:26:25;19.30;;;9.32;;
36355;SDS011;22384;54.302;18.596;2022-10-16T15:29:00;13.60;;;8.90;;
36355;SDS011;22384;54.302;18.596;2022-10-16T15:31:32;10.73;;;7.78;;
36355;SDS011;22384;54.302;18.596;2022-10-16T15:34:01;11.13;;;7.88;;
36355;SDS011;22384;54.302;18.596;2022-10-16T15:36:30;9.75;;;7.53;;
36355;SDS011;22384;54.302;18.596;2022-10-16T15:39:01;11.75;;;8.05;;
36355;SDS011;22384;54.302;18.596;2022-10-16T15:41:27;10.90;;;7.70;;
36355;SDS011;22384;54.302;18.596;2022-10-16T15:44:07;9.43;;;7.50;;
36355;SDS011;22384;54.302;18.596;2022-10-16T15:46:33;10.65;;;7.70;;
36355;SDS011;22384;54.302;18.596;2022-10-16T15:49:01;11.27;;;9.20;;
36355;SDS011;22384;54.302;18.596;2022-10-16T15:51:39;13.48;;;9.30;;
36355;SDS011;22384;54.302;18.596;2022-10-16T15:54:12;8.85;;;7.95;;
36355;SDS011;22384;54.302;18.596;2022-10-16T15:56:40;10.68;;;7.57;;
36355;SDS011;22384;54.302;18.596;2022-10-16T15:59:17;17.73;;;9.43;;
36355;SDS011;22384;54.302;18.596;2022-10-16T16:01:52;11.10;;;9.45;;
36355;SDS011;22384;54.302;18.596;2022-10-16T16:04:21;12.20;;;9.13;;
36355;SDS011;22384;54.302;18.596;2022-10-16T16:06:55;10.63;;;8.53;;
36355;SDS011;22384;54.302;18.596;2022-10-16T16:09:21;18.95;;;9.70;;
36355;SDS011;22384;54.302;18.596;2022-10-16T16:12:17;14.25;;;9.40;;
36355;SDS011;22384;54.302;18.596;2022-10-16T16:14:51;16.33;;;11.02;;